Friday, December 14, 2018, 6:55 PM EST
Back to Local

KSFM, Sanford, Sanford Regional Airport

Location: Sanford, ME, United States Lat: 43.4
Local Time: 6:55 PM EST (23:55 GMT) Lon: -70.717
Time Zone: US/Eastern Elev: 242 ft

Show me the last for .
Show Decoded

2018-12-14 18:44 METAR KSFM 142344Z AUTO 17004KT 10SM BKN028 OVC070 03/M01 A3032 RMK AO2 PNO $ =
2018-12-14 17:56 METAR KSFM 142256Z AUTO 19004KT 10SM BKN049 03/M01 A3036 RMK AO2 SLP287
                 T00281011 PNO $ =
2018-12-14 16:56 METAR KSFM 142156Z AUTO 20004KT 10SM OVC046 03/M02 A3037 RMK AO2 SLP290
                 T00331017 PNO $ =
2018-12-14 15:56 METAR KSFM 142056Z AUTO VRB03KT 10SM OVC048 04/M02 A3037 RMK AO2 SLP289 6////
                 T00441022 56020 PNO $ =
2018-12-14 14:56 METAR KSFM 141956Z AUTO VRB05KT 10SM FEW048 05/M03 A3037 RMK AO2 SLP291
                 T00501033 PNO $ =
2018-12-14 13:56 METAR KSFM 141856Z AUTO VRB05KT 10SM FEW050 05/M03 A3039 RMK AO2 SLP295
                 T00501033 PNO $ =
2018-12-14 12:56 METAR KSFM 141756Z AUTO 21005KT 10SM SCT039 03/M03 A3043 RMK AO2 SLP310 6////
                 T00331033 10033 21072 56034 PNO $ =
2018-12-14 11:56 METAR KSFM 141656Z AUTO 20007KT 10SM OVC039 02/M03 A3046 RMK AO2 SLP321
                 T00221033 FZRANO PNO $ =
2018-12-14 10:56 METAR KSFM 141556Z AUTO 22006KT 10SM OVC039 01/M04 A3049 RMK AO2 SLP332
                 T00111039 FZRANO PNO $ =
2018-12-14 09:56 METAR KSFM 141456Z AUTO 23006KT 10SM OVC039 00/M04 A3053 RMK AO2 SLP344 6////
                 T00001039 50007 FZRANO PNO $ =
2018-12-14 08:56 METAR KSFM 141356Z AUTO 00000KT 10SM OVC041 M03/M04 A3053 RMK AO2 SLP346
                 T10281044 FZRANO PNO $ =
2018-12-14 08:14 METAR KSFM 141314Z AUTO 00000KT 10SM SCT025 OVC043 M04/M06 A3053 RMK AO2 FZRANO
                 PNO $ =
2018-12-14 07:56 METAR KSFM 141256Z AUTO 00000KT 10SM BKN023 OVC043 M04/M06 A3052 RMK AO2 SLP344
                 T10441061 FZRANO PNO $ =
2018-12-14 06:56 METAR KSFM 141156Z AUTO 00000KT 10SM OVC023 M07/M08 A3051 RMK AO2 SLP338 6////
                 7//// T10721083 11022 21089 58002 FZRANO PNO $ =
2018-12-14 05:56 METAR KSFM 141056Z AUTO 00000KT 10SM BKN023 M08/M10 A3052 RMK AO2 SLP343
                 T10831100 FZRANO PNO $ =
2018-12-14 05:49 METAR KSFM 141049Z AUTO 00000KT 10SM BKN023 M09/M10 A3052 RMK AO2 FZRANO PNO $ =
2018-12-14 05:15 METAR KSFM 141015Z AUTO 00000KT 10SM SCT023 M08/M10 A3051 RMK AO2 FZRANO PNO $ =
2018-12-14 04:56 METAR KSFM 140956Z AUTO 00000KT 10SM BKN023 M08/M09 A3051 RMK AO2 SLP341
                 T10831094 FZRANO PNO $ =
2018-12-14 04:20 METAR KSFM 140920Z AUTO 00000KT 10SM BKN025 M07/M09 A3051 RMK AO2 FZRANO PNO $ =
2018-12-14 03:56 METAR KSFM 140856Z AUTO 00000KT 10SM CLR M07/M09 A3051 RMK AO2 SLP340 6////
                 T10721089 58015 FZRANO PNO $ =
2018-12-14 02:56 METAR KSFM 140756Z AUTO 00000KT 10SM FEW024 BKN055 M03/M07 A3054 RMK AO2 SLP348
                 T10331072 FZRANO PNO $ =
2018-12-14 02:22 METAR KSFM 140722Z AUTO 21004KT 10SM BKN028 OVC055 M03/M07 A3055 RMK AO2 FZRANO
                 PNO $ =
2018-12-14 01:56 METAR KSFM 140656Z AUTO 00000KT 10SM OVC055 M03/M07 A3056 RMK AO2 SLP354
                 T10331067 FZRANO PNO $ =
2018-12-14 01:38 METAR KSFM 140638Z AUTO 00000KT 10SM SCT029 OVC055 M03/M07 A3056 RMK AO2 FZRANO
                 PNO $ =
2018-12-14 01:19 METAR KSFM 140619Z AUTO 00000KT 10SM BKN027 OVC050 M04/M07 A3055 RMK AO2 FZRANO
                 PNO $ =
2018-12-14 01:09 METAR KSFM 140609Z AUTO 00000KT 10SM SCT027 OVC050 M04/M07 A3055 RMK AO2 FZRANO
                 PNO $ =
2018-12-14 00:56 METAR KSFM 140556Z AUTO 00000KT 10SM BKN029 OVC050 M04/M07 A3055 RMK AO2 SLP353
                 6//// T10391072 11039 21061 56004 FZRANO PNO $ =
2018-12-13 23:56 METAR KSFM 140456Z AUTO 00000KT 10SM BKN033 OVC055 M04/M07 A3056 RMK AO2 SLP355
                 T10391072 FZRANO PNO $ =
2018-12-13 22:56 METAR KSFM 140356Z AUTO 00000KT 10SM OVC037 M04/M09 A3056 RMK AO2 SLP357
                 T10391089 410221189 FZRANO PNO $ =
2018-12-13 21:56 METAR KSFM 140256Z AUTO 00000KT 10SM OVC037 M05/M09 A3057 RMK AO2 SLP359 6////
                 T10501089 55003 FZRANO PNO $ =
2018-12-13 20:56 METAR KSFM 140156Z AUTO 00000KT 10SM BKN040 OVC060 M05/M09 A3055 RMK AO2 SLP352
                 T10501089 FZRANO PNO $ =
2018-12-13 19:56 METAR KSFM 140056Z AUTO 00000KT 10SM OVC044 M06/M09 A3057 RMK AO2 SLP362
                 T10561089 FZRANO PNO $ =
2018-12-13 18:56 METAR KSFM 132356Z AUTO 00000KT 10SM OVC055 M06/M09 A3058 RMK AO2 SLP363 6////
                 T10611094 11022 21078 51012 FZRANO PNO $ =

Support USWX by starting your Amazon purchase here.